sensor_id;sensor_type;location;lat;lon;timestamp;pressure;altitude;pressure_sealevel;temperature;humidity
13869;BME280;7004;48.206;16.402;2023-04-10T00:00:47;100596.13;;;7.99;85.33
13869;BME280;7004;48.206;16.402;2023-04-10T00:03:14;100587.97;;;7.83;85.43
13869;BME280;7004;48.206;16.402;2023-04-10T00:05:42;100593.31;;;7.81;85.85
13869;BME280;7004;48.206;16.402;2023-04-10T00:08:08;100595.13;;;7.79;85.71
13869;BME280;7004;48.206;16.402;2023-04-10T00:10:35;100587.94;;;7.84;85.17
13869;BME280;7004;48.206;16.402;2023-04-10T00:13:01;100592.22;;;7.87;85.03
13869;BME280;7004;48.206;16.402;2023-04-10T00:15:28;100590.91;;;7.75;85.22
13869;BME280;7004;48.206;16.402;2023-04-10T00:17:54;100592.56;;;7.78;86.06
13869;BME280;7004;48.206;16.402;2023-04-10T00:20:21;100587.50;;;7.95;86.31
13869;BME280;7004;48.206;16.402;2023-04-10T00:22:48;100582.06;;;8.00;85.66
13869;BME280;7004;48.206;16.402;2023-04-10T00:25:14;100581.38;;;7.95;84.97
13869;BME280;7004;48.206;16.402;2023-04-10T00:27:41;100579.25;;;7.59;86.29
13869;BME280;7004;48.206;16.402;2023-04-10T00:30:07;100585.63;;;7.52;86.45
13869;BME280;7004;48.206;16.402;2023-04-10T00:32:33;100586.16;;;7.85;86.11
13869;BME280;7004;48.206;16.402;2023-04-10T00:35:00;100580.31;;;7.77;85.41
13869;BME280;7004;48.206;16.402;2023-04-10T00:37:26;100580.06;;;7.83;85.27
13869;BME280;7004;48.206;16.402;2023-04-10T00:39:52;100583.25;;;7.69;85.94
13869;BME280;7004;48.206;16.402;2023-04-10T00:42:18;100586.13;;;7.39;86.75
13869;BME280;7004;48.206;16.402;2023-04-10T00:44:44;100585.47;;;7.33;86.56
13869;BME280;7004;48.206;16.402;2023-04-10T00:47:12;100581.03;;;7.58;86.07
13869;BME280;7004;48.206;16.402;2023-04-10T00:49:40;100586.16;;;7.38;86.41
13869;BME280;7004;48.206;16.402;2023-04-10T00:52:07;100590.00;;;7.53;86.50
13869;BME280;7004;48.206;16.402;2023-04-10T00:54:33;100587.69;;;7.67;86.42
13869;BME280;7004;48.206;16.402;2023-04-10T00:57:02;100578.38;;;7.35;86.00
13869;BME280;7004;48.206;16.402;2023-04-10T00:59:30;100580.22;;;7.33;87.22
13869;BME280;7004;48.206;16.402;2023-04-10T01:01:57;100580.63;;;7.46;86.13
13869;BME280;7004;48.206;16.402;2023-04-10T01:04:23;100587.69;;;7.20;86.11
13869;BME280;7004;48.206;16.402;2023-04-10T01:13:19;100581.88;;;7.10;88.71
13869;BME280;7004;48.206;16.402;2023-04-10T01:16:15;100581.97;;;7.32;87.17
13869;BME280;7004;48.206;16.402;2023-04-10T01:18:52;100580.66;;;7.44;86.22
13869;BME280;7004;48.206;16.402;2023-04-10T01:21:22;100576.69;;;7.09;88.12
13869;BME280;7004;48.206;16.402;2023-04-10T01:27:11;100587.16;;;7.34;86.65
13869;BME280;7004;48.206;16.402;2023-04-10T01:29:48;100586.44;;;7.30;87.77
13869;BME280;7004;48.206;16.402;2023-04-10T01:32:19;100581.72;;;6.90;88.53
13869;BME280;7004;48.206;16.402;2023-04-10T01:34:50;100583.94;;;7.02;88.78
13869;BME280;7004;48.206;16.402;2023-04-10T01:37:23;100583.13;;;7.00;88.21
13869;BME280;7004;48.206;16.402;2023-04-10T01:40:00;100579.91;;;7.17;87.78
13869;BME280;7004;48.206;16.402;2023-04-10T01:42:31;100580.94;;;6.88;89.03
13869;BME280;7004;48.206;16.402;2023-04-10T01:45:00;100583.28;;;7.20;88.65
13869;BME280;7004;48.206;16.402;2023-04-10T01:47:26;100580.88;;;7.14;87.89
13869;BME280;7004;48.206;16.402;2023-04-10T01:49:54;100586.28;;;7.10;87.22
13869;BME280;7004;48.206;16.402;2023-04-10T01:52:23;100578.28;;;7.13;87.71
13869;BME280;7004;48.206;16.402;2023-04-10T01:54:51;100576.31;;;6.94;88.24
13869;BME280;7004;48.206;16.402;2023-04-10T01:57:18;100580.91;;;7.13;87.17
13869;BME280;7004;48.206;16.402;2023-04-10T01:59:45;100578.66;;;7.27;86.43
13869;BME280;7004;48.206;16.402;2023-04-10T02:02:11;100582.84;;;7.08;87.62
13869;BME280;7004;48.206;16.402;2023-04-10T02:04:38;100574.06;;;7.09;86.65
13869;BME280;7004;48.206;16.402;2023-04-10T02:07:35;100584.34;;;7.15;87.83
13869;BME280;7004;48.206;16.402;2023-04-10T02:10:14;100583.44;;;7.16;87.15
13869;BME280;7004;48.206;16.402;2023-04-10T02:12:48;100583.94;;;7.02;87.45
13869;BME280;7004;48.206;16.402;2023-04-10T02:15:23;100576.88;;;7.28;86.73
13869;BME280;7004;48.206;16.402;2023-04-10T02:17:54;100580.59;;;7.22;86.89
13869;BME280;7004;48.206;16.402;2023-04-10T02:20:23;100581.13;;;7.07;88.05
13869;BME280;7004;48.206;16.402;2023-04-10T02:22:49;100583.91;;;7.27;86.81
13869;BME280;7004;48.206;16.402;2023-04-10T02:25:18;100573.75;;;6.93;87.04
13869;BME280;7004;48.206;16.402;2023-04-10T02:27:44;100572.81;;;6.94;87.91
13869;BME280;7004;48.206;16.402;2023-04-10T02:30:10;100570.03;;;6.98;87.23
13869;BME280;7004;48.206;16.402;2023-04-10T02:32:37;100575.50;;;7.17;85.57
13869;BME280;7004;48.206;16.402;2023-04-10T02:35:03;100568.91;;;7.06;86.42
13869;BME280;7004;48.206;16.402;2023-04-10T02:37:30;100576.66;;;7.34;85.12
13869;BME280;7004;48.206;16.402;2023-04-10T02:39:59;100575.59;;;7.14;86.78
13869;BME280;7004;48.206;16.402;2023-04-10T02:42:25;100579.22;;;7.12;86.47
13869;BME280;7004;48.206;16.402;2023-04-10T02:44:51;100571.28;;;6.88;87.57
13869;BME280;7004;48.206;16.402;2023-04-10T02:47:17;100583.66;;;7.10;86.87
13869;BME280;7004;48.206;16.402;2023-04-10T02:49:43;100569.47;;;6.90;88.14
13869;BME280;7004;48.206;16.402;2023-04-10T02:52:09;100573.88;;;7.13;86.95
13869;BME280;7004;48.206;16.402;2023-04-10T02:54:36;100568.53;;;7.16;86.57
13869;BME280;7004;48.206;16.402;2023-04-10T02:57:02;100574.19;;;6.79;87.56
13869;BME280;7004;48.206;16.402;2023-04-10T02:59:29;100571.28;;;6.88;88.16
13869;BME280;7004;48.206;16.402;2023-04-10T03:01:56;100581.34;;;6.75;88.60
13869;BME280;7004;48.206;16.402;2023-04-10T03:04:22;100577.34;;;6.90;88.11
13869;BME280;7004;48.206;16.402;2023-04-10T03:06:48;100582.41;;;6.70;89.04
13869;BME280;7004;48.206;16.402;2023-04-10T03:09:15;100578.38;;;6.85;89.16
13869;BME280;7004;48.206;16.402;2023-04-10T03:11:42;100568.94;;;6.79;87.80
13869;BME280;7004;48.206;16.402;2023-04-10T03:14:10;100576.38;;;6.66;88.38
13869;BME280;7004;48.206;16.402;2023-04-10T03:16:38;100568.47;;;6.68;89.79
13869;BME280;7004;48.206;16.402;2023-04-10T03:19:04;100569.31;;;6.68;89.09
13869;BME280;7004;48.206;16.402;2023-04-10T03:21:31;100570.09;;;6.72;89.14
13869;BME280;7004;48.206;16.402;2023-04-10T03:23:57;100570.88;;;6.74;89.48
13869;BME280;7004;48.206;16.402;2023-04-10T03:26:24;100566.91;;;6.62;89.68
13869;BME280;7004;48.206;16.402;2023-04-10T03:28:51;100565.63;;;6.74;88.92
13869;BME280;7004;48.206;16.402;2023-04-10T03:31:17;100570.13;;;6.70;89.39
13869;BME280;7004;48.206;16.402;2023-04-10T03:33:43;100568.44;;;6.69;90.14
13869;BME280;7004;48.206;16.402;2023-04-10T03:36:09;100570.97;;;6.71;89.04
13869;BME280;7004;48.206;16.402;2023-04-10T03:38:37;100573.19;;;6.83;89.29
13869;BME280;7004;48.206;16.402;2023-04-10T03:41:03;100570.97;;;6.71;89.65
13869;BME280;7004;48.206;16.402;2023-04-10T03:43:30;100569.06;;;6.76;89.35
13869;BME280;7004;48.206;16.402;2023-04-10T03:45:56;100565.31;;;6.83;88.76
13869;BME280;7004;48.206;16.402;2023-04-10T03:48:23;100563.53;;;6.84;88.50
13869;BME280;7004;48.206;16.402;2023-04-10T03:50:54;100562.63;;;6.60;89.55
13869;BME280;7004;48.206;16.402;2023-04-10T03:53:21;100566.59;;;6.71;89.47
13869;BME280;7004;48.206;16.402;2023-04-10T03:55:47;100564.06;;;6.68;89.66
13869;BME280;7004;48.206;16.402;2023-04-10T03:58:13;100562.94;;;6.75;89.10
13869;BME280;7004;48.206;16.402;2023-04-10T04:00:39;100561.50;;;6.67;89.56
13869;BME280;7004;48.206;16.402;2023-04-10T04:03:07;100563.38;;;6.88;88.39
13869;BME280;7004;48.206;16.402;2023-04-10T04:05:33;100561.06;;;6.54;89.17
13869;BME280;7004;48.206;16.402;2023-04-10T04:08:00;100570.63;;;6.82;88.22
13869;BME280;7004;48.206;16.402;2023-04-10T04:10:26;100567.88;;;6.85;88.52
13869;BME280;7004;48.206;16.402;2023-04-10T04:12:52;100576.38;;;6.66;88.36
13869;BME280;7004;48.206;16.402;2023-04-10T04:15:18;100583.41;;;6.66;88.76
13869;BME280;7004;48.206;16.402;2023-04-10T04:17:47;100584.88;;;6.74;88.88
13869;BME280;7004;48.206;16.402;2023-04-10T04:20:13;100577.84;;;6.48;90.06
13869;BME280;7004;48.206;16.402;2023-04-10T04:22:39;100576.66;;;6.59;89.32
13869;BME280;7004;48.206;16.402;2023-04-10T04:25:07;100583.22;;;6.72;89.49
13869;BME280;7004;48.206;16.402;2023-04-10T04:27:36;100586.13;;;6.64;89.45
13869;BME280;7004;48.206;16.402;2023-04-10T04:30:03;100585.09;;;6.68;88.33
13869;BME280;7004;48.206;16.402;2023-04-10T04:32:30;100591.56;;;6.58;89.04
13869;BME280;7004;48.206;16.402;2023-04-10T04:34:57;100587.13;;;6.60;89.46
13869;BME280;7004;48.206;16.402;2023-04-10T04:37:23;100589.66;;;6.88;87.96
13869;BME280;7004;48.206;16.402;2023-04-10T04:39:49;100597.22;;;6.72;87.75
13869;BME280;7004;48.206;16.402;2023-04-10T04:42:15;100592.22;;;6.90;87.72
13869;BME280;7004;48.206;16.402;2023-04-10T04:44:41;100590.69;;;6.57;89.03
13869;BME280;7004;48.206;16.402;2023-04-10T04:47:08;100599.53;;;6.82;87.56
13869;BME280;7004;48.206;16.402;2023-04-10T04:49:35;100598.78;;;6.78;87.38
13869;BME280;7004;48.206;16.402;2023-04-10T04:52:01;100603.19;;;6.77;88.08
13869;BME280;7004;48.206;16.402;2023-04-10T04:54:27;100601.47;;;6.50;88.81
13869;BME280;7004;48.206;16.402;2023-04-10T04:56:53;100610.44;;;6.43;89.88
13869;BME280;7004;48.206;16.402;2023-04-10T04:59:20;100607.22;;;6.61;88.99
13869;BME280;7004;48.206;16.402;2023-04-10T05:01:46;100613.03;;;6.71;88.34
13869;BME280;7004;48.206;16.402;2023-04-10T05:04:12;100613.78;;;6.74;87.85
13869;BME280;7004;48.206;16.402;2023-04-10T05:06:38;100610.47;;;6.69;89.01
13869;BME280;7004;48.206;16.402;2023-04-10T05:09:04;100607.41;;;6.55;89.81
13869;BME280;7004;48.206;16.402;2023-04-10T05:11:30;100608.88;;;6.64;88.74
13869;BME280;7004;48.206;16.402;2023-04-10T05:13:56;100605.69;;;6.81;88.37
13869;BME280;7004;48.206;16.402;2023-04-10T05:16:23;100608.22;;;6.84;88.36
13869;BME280;7004;48.206;16.402;2023-04-10T05:18:49;100606.66;;;6.78;88.30
13869;BME280;7004;48.206;16.402;2023-04-10T05:21:15;100610.72;;;6.87;88.39
13869;BME280;7004;48.206;16.402;2023-04-10T05:23:41;100615.88;;;6.90;87.99
13869;BME280;7004;48.206;16.402;2023-04-10T05:26:07;100617.31;;;6.73;89.04
13869;BME280;7004;48.206;16.402;2023-04-10T05:28:33;100619.31;;;6.92;88.55
13869;BME280;7004;48.206;16.402;2023-04-10T05:30:59;100624.09;;;6.81;88.67
13869;BME280;7004;48.206;16.402;2023-04-10T05:33:26;100632.16;;;6.74;89.69
13869;BME280;7004;48.206;16.402;2023-04-10T05:35:53;100632.22;;;6.99;88.39
13869;BME280;7004;48.206;16.402;2023-04-10T05:38:19;100624.06;;;7.07;88.45
13869;BME280;7004;48.206;16.402;2023-04-10T05:40:45;100628.03;;;7.19;88.08
13869;BME280;7004;48.206;16.402;2023-04-10T05:43:11;100633.13;;;7.23;87.57
13869;BME280;7004;48.206;16.402;2023-04-10T05:45:38;100624.94;;;7.56;85.47
13869;BME280;7004;48.206;16.402;2023-04-10T05:48:05;100634.09;;;6.96;88.09
13869;BME280;7004;48.206;16.402;2023-04-10T05:50:31;100641.59;;;7.07;88.29
13869;BME280;7004;48.206;16.402;2023-04-10T05:52:59;100636.38;;;7.32;87.14
13869;BME280;7004;48.206;16.402;2023-04-10T05:55:25;100640.03;;;7.51;86.67
13869;BME280;7004;48.206;16.402;2023-04-10T05:57:51;100643.59;;;7.50;85.69
13869;BME280;7004;48.206;16.402;2023-04-10T06:00:18;100641.13;;;7.46;85.89
13869;BME280;7004;48.206;16.402;2023-04-10T06:02:44;100639.19;;;7.51;86.03
13869;BME280;7004;48.206;16.402;2023-04-10T06:05:10;100633.97;;;7.49;86.11
13869;BME280;7004;48.206;16.402;2023-04-10T06:07:36;100641.19;;;7.68;86.07
13869;BME280;7004;48.206;16.402;2023-04-10T06:10:03;100636.94;;;8.10;84.12
13869;BME280;7004;48.206;16.402;2023-04-10T06:12:29;100639.88;;;8.03;84.43
13869;BME280;7004;48.206;16.402;2023-04-10T06:14:56;100638.25;;;8.22;84.06
13869;BME280;7004;48.206;16.402;2023-04-10T06:17:22;100643.19;;;8.53;81.52
13869;BME280;7004;48.206;16.402;2023-04-10T06:19:50;100645.00;;;8.06;84.65
13869;BME280;7004;48.206;16.402;2023-04-10T06:22:16;100646.25;;;8.19;83.46
13869;BME280;7004;48.206;16.402;2023-04-10T06:24:42;100645.94;;;8.05;83.04
13869;BME280;7004;48.206;16.402;2023-04-10T06:27:08;100653.84;;;8.05;83.52
13869;BME280;7004;48.206;16.402;2023-04-10T06:29:35;100654.53;;;8.10;82.58
13869;BME280;7004;48.206;16.402;2023-04-10T06:32:03;100648.16;;;8.16;82.54
13869;BME280;7004;48.206;16.402;2023-04-10T06:34:29;100653.50;;;8.36;82.35
13869;BME280;7004;48.206;16.402;2023-04-10T06:36:55;100653.84;;;8.27;82.19
13869;BME280;7004;48.206;16.402;2023-04-10T06:39:21;100653.84;;;8.72;79.82
13869;BME280;7004;48.206;16.402;2023-04-10T06:41:48;100654.53;;;8.98;78.83
13869;BME280;7004;48.206;16.402;2023-04-10T06:44:14;100651.44;;;8.88;80.10
13869;BME280;7004;48.206;16.402;2023-04-10T06:46:40;100656.69;;;8.88;79.13
13869;BME280;7004;48.206;16.402;2023-04-10T06:49:06;100663.00;;;9.06;78.25
13869;BME280;7004;48.206;16.402;2023-04-10T06:51:32;100662.03;;;8.87;79.13
13869;BME280;7004;48.206;16.402;2023-04-10T06:53:58;100660.34;;;9.68;77.17
13869;BME280;7004;48.206;16.402;2023-04-10T06:56:24;100665.84;;;10.01;76.45
13869;BME280;7004;48.206;16.402;2023-04-10T06:58:50;100670.50;;;9.75;74.95
13869;BME280;7004;48.206;16.402;2023-04-10T07:01:16;100669.25;;;9.65;76.74
13869;BME280;7004;48.206;16.402;2023-04-10T07:03:42;100671.53;;;9.73;74.49
13869;BME280;7004;48.206;16.402;2023-04-10T07:06:09;100672.59;;;9.69;75.40
13869;BME280;7004;48.206;16.402;2023-04-10T07:08:36;100660.34;;;9.87;73.82
13869;BME280;7004;48.206;16.402;2023-04-10T07:11:02;100664.31;;;9.76;74.38
13869;BME280;7004;48.206;16.402;2023-04-10T07:13:28;100666.63;;;10.22;72.72
13869;BME280;7004;48.206;16.402;2023-04-10T07:15:54;100667.16;;;9.72;74.15
13869;BME280;7004;48.206;16.402;2023-04-10T07:18:20;100665.84;;;10.01;73.68
13869;BME280;7004;48.206;16.402;2023-04-10T07:20:46;100665.53;;;9.88;73.36
13869;BME280;7004;48.206;16.402;2023-04-10T07:23:13;100663.03;;;9.85;73.90
13869;BME280;7004;48.206;16.402;2023-04-10T07:25:41;100657.63;;;10.45;72.44
13869;BME280;7004;48.206;16.402;2023-04-10T07:28:07;100658.50;;;11.17;69.92
13869;BME280;7004;48.206;16.402;2023-04-10T07:30:33;100650.81;;;11.29;68.60
13869;BME280;7004;48.206;16.402;2023-04-10T07:32:59;100662.19;;;11.65;67.62
13869;BME280;7004;48.206;16.402;2023-04-10T07:35:25;100652.34;;;13.09;62.82
13869;BME280;7004;48.206;16.402;2023-04-10T07:37:52;100660.50;;;11.79;64.16
13869;BME280;7004;48.206;16.402;2023-04-10T07:40:19;100653.34;;;12.31;63.38
13869;BME280;7004;48.206;16.402;2023-04-10T07:42:45;100656.78;;;12.95;60.61
13869;BME280;7004;48.206;16.402;2023-04-10T07:45:12;100650.19;;;12.86;61.24
13869;BME280;7004;48.206;16.402;2023-04-10T07:47:38;100650.09;;;13.76;57.84
13869;BME280;7004;48.206;16.402;2023-04-10T07:50:05;100650.84;;;14.07;56.68
13869;BME280;7004;48.206;16.402;2023-04-10T07:52:32;100647.81;;;13.11;60.28
13869;BME280;7004;48.206;16.402;2023-04-10T07:55:03;100639.75;;;13.72;58.47
13869;BME280;7004;48.206;16.402;2023-04-10T07:57:30;100648.78;;;12.64;59.47
13869;BME280;7004;48.206;16.402;2023-04-10T07:59:57;100644.06;;;12.70;59.00
13869;BME280;7004;48.206;16.402;2023-04-10T08:02:23;100641.31;;;14.17;55.52
13869;BME280;7004;48.206;16.402;2023-04-10T08:04:49;100653.47;;;13.36;56.35
13869;BME280;7004;48.206;16.402;2023-04-10T08:07:15;100649.03;;;13.50;57.43
13869;BME280;7004;48.206;16.402;2023-04-10T08:09:42;100648.19;;;13.93;57.46
13869;BME280;7004;48.206;16.402;2023-04-10T08:12:08;100653.44;;;12.91;58.72
13869;BME280;7004;48.206;16.402;2023-04-10T08:14:34;100651.03;;;14.87;55.74
13869;BME280;7004;48.206;16.402;2023-04-10T08:17:00;100657.53;;;13.27;58.67
13869;BME280;7004;48.206;16.402;2023-04-10T08:19:26;100653.84;;;13.29;59.89
13869;BME280;7004;48.206;16.402;2023-04-10T08:21:52;100654.25;;;13.95;58.84
13869;BME280;7004;48.206;16.402;2023-04-10T08:24:18;100647.78;;;14.69;55.59
13869;BME280;7004;48.206;16.402;2023-04-10T08:26:47;100654.22;;;14.38;55.54
13869;BME280;7004;48.206;16.402;2023-04-10T08:29:13;100655.66;;;14.15;55.97
13869;BME280;7004;48.206;16.402;2023-04-10T08:31:40;100650.44;;;14.28;55.23
13869;BME280;7004;48.206;16.402;2023-04-10T08:34:06;100654.94;;;13.84;57.02
13869;BME280;7004;48.206;16.402;2023-04-10T08:36:33;100642.75;;;14.64;55.00
13869;BME280;7004;48.206;16.402;2023-04-10T08:39:00;100647.19;;;14.91;53.68
13869;BME280;7004;48.206;16.402;2023-04-10T08:41:26;100649.97;;;14.90;53.34
13869;BME280;7004;48.206;16.402;2023-04-10T08:43:52;100641.19;;;15.66;54.00
13869;BME280;7004;48.206;16.402;2023-04-10T08:46:18;100647.66;;;14.71;54.71
13869;BME280;7004;48.206;16.402;2023-04-10T08:48:52;100648.75;;;13.10;56.98
13869;BME280;7004;48.206;16.402;2023-04-10T08:51:23;100643.69;;;12.76;57.29
13869;BME280;7004;48.206;16.402;2023-04-10T08:53:57;100646.38;;;13.36;58.65
13869;BME280;7004;48.206;16.402;2023-04-10T08:56:30;100640.41;;;13.02;58.82
13869;BME280;7004;48.206;16.402;2023-04-10T08:59:00;100632.34;;;15.27;54.52
13869;BME280;7004;48.206;16.402;2023-04-10T09:01:27;100638.88;;;13.43;58.07
13869;BME280;7004;48.206;16.402;2023-04-10T09:03:54;100623.84;;;15.73;51.96
13869;BME280;7004;48.206;16.402;2023-04-10T09:06:20;100623.66;;;13.16;58.24
13869;BME280;7004;48.206;16.402;2023-04-10T09:08:46;100621.59;;;12.91;58.84
13869;BME280;7004;48.206;16.402;2023-04-10T09:11:13;100619.38;;;13.72;55.13
13869;BME280;7004;48.206;16.402;2023-04-10T09:13:42;100611.56;;;15.32;51.28
13869;BME280;7004;48.206;16.402;2023-04-10T09:16:13;100608.00;;;14.93;53.58
13869;BME280;7004;48.206;16.402;2023-04-10T09:18:50;100623.63;;;13.89;56.40
13869;BME280;7004;48.206;16.402;2023-04-10T09:21:19;100615.16;;;15.05;53.59
13869;BME280;7004;48.206;16.402;2023-04-10T09:23:47;100607.31;;;14.50;54.95
13869;BME280;7004;48.206;16.402;2023-04-10T09:26:31;100609.06;;;14.91;51.99
13869;BME280;7004;48.206;16.402;2023-04-10T09:29:06;100605.00;;;16.61;49.46
13869;BME280;7004;48.206;16.402;2023-04-10T09:31:35;100599.78;;;16.59;49.03
13869;BME280;7004;48.206;16.402;2023-04-10T09:34:12;100594.53;;;14.15;53.20
13869;BME280;7004;48.206;16.402;2023-04-10T09:36:53;100601.16;;;14.49;53.99
13869;BME280;7004;48.206;16.402;2023-04-10T09:39:37;100594.34;;;14.45;51.46
13869;BME280;7004;48.206;16.402;2023-04-10T09:42:09;100596.44;;;14.67;51.38
13869;BME280;7004;48.206;16.402;2023-04-10T09:44:38;100602.56;;;13.29;56.03
13869;BME280;7004;48.206;16.402;2023-04-10T09:47:19;100584.16;;;15.17;52.39
13869;BME280;7004;48.206;16.402;2023-04-10T09:49:47;100590.25;;;12.67;57.01
13869;BME280;7004;48.206;16.402;2023-04-10T09:52:17;100575.75;;;14.98;52.71
13869;BME280;7004;48.206;16.402;2023-04-10T09:54:44;100590.66;;;13.92;54.63
13869;BME280;7004;48.206;16.402;2023-04-10T09:57:17;100573.22;;;15.35;52.41
13869;BME280;7004;48.206;16.402;2023-04-10T09:59:50;100576.28;;;15.03;52.75
13869;BME280;7004;48.206;16.402;2023-04-10T10:02:18;100580.72;;;13.67;54.31
13869;BME280;7004;48.206;16.402;2023-04-10T10:04:46;100581.94;;;13.90;54.64
13869;BME280;7004;48.206;16.402;2023-04-10T10:07:18;100572.81;;;14.62;52.46
13869;BME280;7004;48.206;16.402;2023-04-10T10:09:48;100572.97;;;14.05;53.40
13869;BME280;7004;48.206;16.402;2023-04-10T10:12:21;100566.03;;;14.17;52.72
13869;BME280;7004;48.206;16.402;2023-04-10T10:14:59;100553.09;;;14.25;53.08
13869;BME280;7004;48.206;16.402;2023-04-10T10:17:36;100561.78;;;13.44;55.28
13869;BME280;7004;48.206;16.402;2023-04-10T10:20:08;100559.38;;;13.83;55.24
13869;BME280;7004;48.206;16.402;2023-04-10T10:22:36;100554.88;;;14.92;53.28
13869;BME280;7004;48.206;16.402;2023-04-10T10:25:03;100549.81;;;13.80;53.31
13869;BME280;7004;48.206;16.402;2023-04-10T10:27:30;100546.97;;;14.10;51.67
13869;BME280;7004;48.206;16.402;2023-04-10T10:29:59;100540.53;;;14.54;52.58
13869;BME280;7004;48.206;16.402;2023-04-10T10:32:26;100531.69;;;15.82;50.70
13869;BME280;7004;48.206;16.402;2023-04-10T10:34:53;100533.22;;;15.73;49.36
13869;BME280;7004;48.206;16.402;2023-04-10T10:37:19;100534.97;;;14.17;53.49
13869;BME280;7004;48.206;16.402;2023-04-10T10:40:18;100529.53;;;15.12;50.04
13869;BME280;7004;48.206;16.402;2023-04-10T10:43:04;100532.91;;;14.35;53.04
13869;BME280;7004;48.206;16.402;2023-04-10T10:46:08;100528.78;;;14.84;51.00
13869;BME280;7004;48.206;16.402;2023-04-10T10:48:36;100530.00;;;14.26;51.99
13869;BME280;7004;48.206;16.402;2023-04-10T10:51:02;100512.91;;;15.46;51.34
13869;BME280;7004;48.206;16.402;2023-04-10T10:53:43;100515.66;;;14.55;51.50
13869;BME280;7004;48.206;16.402;2023-04-10T10:58:50;100508.34;;;14.72;50.94
13869;BME280;7004;48.206;16.402;2023-04-10T11:01:18;100503.97;;;14.83;50.94
13869;BME280;7004;48.206;16.402;2023-04-10T11:03:46;100496.78;;;16.22;47.73
13869;BME280;7004;48.206;16.402;2023-04-10T11:06:21;100497.03;;;14.68;49.85
13869;BME280;7004;48.206;16.402;2023-04-10T11:08:49;100496.31;;;14.66;49.74
13869;BME280;7004;48.206;16.402;2023-04-10T11:11:24;100496.63;;;15.25;49.60
13869;BME280;7004;48.206;16.402;2023-04-10T11:16:19;100474.28;;;16.37;47.19
13869;BME280;7004;48.206;16.402;2023-04-10T11:21:22;100477.84;;;15.40;46.75
13869;BME280;7004;48.206;16.402;2023-04-10T11:26:36;100467.84;;;15.31;48.23
13869;BME280;7004;48.206;16.402;2023-04-10T11:31:40;100459.13;;;16.13;46.83
13869;BME280;7004;48.206;16.402;2023-04-10T11:34:09;100457.63;;;15.61;47.95
13869;BME280;7004;48.206;16.402;2023-04-10T11:36:43;100464.03;;;15.09;47.68
13869;BME280;7004;48.206;16.402;2023-04-10T11:39:14;100456.53;;;15.77;49.53
13869;BME280;7004;48.206;16.402;2023-04-10T11:41:53;100459.41;;;15.37;46.09
13869;BME280;7004;48.206;16.402;2023-04-10T11:44:33;100451.94;;;15.79;44.86
13869;BME280;7004;48.206;16.402;2023-04-10T11:47:11;100441.34;;;17.51;43.78
13869;BME280;7004;48.206;16.402;2023-04-10T11:49:38;100439.22;;;17.22;43.13
13869;BME280;7004;48.206;16.402;2023-04-10T11:52:04;100446.69;;;16.72;45.04
13869;BME280;7004;48.206;16.402;2023-04-10T11:54:30;100433.06;;;15.82;44.24
13869;BME280;7004;48.206;16.402;2023-04-10T11:57:06;100431.19;;;15.95;45.31
13869;BME280;7004;48.206;16.402;2023-04-10T11:59:37;100431.69;;;16.82;44.46
13869;BME280;7004;48.206;16.402;2023-04-10T12:02:11;100424.06;;;15.59;46.17
13869;BME280;7004;48.206;16.402;2023-04-10T12:04:44;100425.00;;;15.94;45.30
13869;BME280;7004;48.206;16.402;2023-04-10T12:07:10;100422.59;;;15.55;45.43
13869;BME280;7004;48.206;16.402;2023-04-10T12:09:36;100420.06;;;16.36;44.91
13869;BME280;7004;48.206;16.402;2023-04-10T12:12:04;100418.28;;;16.13;45.13
13869;BME280;7004;48.206;16.402;2023-04-10T12:14:41;100413.03;;;16.35;45.03
13869;BME280;7004;48.206;16.402;2023-04-10T12:17:09;100399.66;;;16.93;44.05
13869;BME280;7004;48.206;16.402;2023-04-10T12:19:38;100399.28;;;18.07;43.17
13869;BME280;7004;48.206;16.402;2023-04-10T12:22:04;100413.75;;;18.05;42.39
13869;BME280;7004;48.206;16.402;2023-04-10T12:24:50;100396.88;;;17.17;42.49
13869;BME280;7004;48.206;16.402;2023-04-10T12:27:21;100406.75;;;16.48;44.45
13869;BME280;7004;48.206;16.402;2023-04-10T12:29:49;100410.00;;;15.20;46.79
13869;BME280;7004;48.206;16.402;2023-04-10T12:32:16;100397.44;;;16.07;44.05
13869;BME280;7004;48.206;16.402;2023-04-10T12:34:56;100383.19;;;17.54;41.83
13869;BME280;7004;48.206;16.402;2023-04-10T12:37:24;100385.63;;;17.78;41.23
13869;BME280;7004;48.206;16.402;2023-04-10T12:39:52;100387.19;;;16.47;42.82
13869;BME280;7004;48.206;16.402;2023-04-10T12:42:29;100389.25;;;16.32;44.57
13869;BME280;7004;48.206;16.402;2023-04-10T12:45:05;100379.59;;;16.54;43.79
13869;BME280;7004;48.206;16.402;2023-04-10T12:47:44;100368.19;;;17.08;43.58
13869;BME280;7004;48.206;16.402;2023-04-10T12:50:16;100365.63;;;17.73;41.28
13869;BME280;7004;48.206;16.402;2023-04-10T12:52:45;100360.00;;;17.43;40.33
13869;BME280;7004;48.206;16.402;2023-04-10T12:55:18;100354.31;;;17.37;40.14
13869;BME280;7004;48.206;16.402;2023-04-10T12:57:47;100362.78;;;16.18;42.47
13869;BME280;7004;48.206;16.402;2023-04-10T13:00:16;100361.00;;;15.83;43.64
13869;BME280;7004;48.206;16.402;2023-04-10T13:02:44;100358.09;;;15.86;44.40
13869;BME280;7004;48.206;16.402;2023-04-10T13:05:11;100354.25;;;15.05;45.55
13869;BME280;7004;48.206;16.402;2023-04-10T13:07:39;100353.38;;;16.59;50.19
13869;BME280;7004;48.206;16.402;2023-04-10T13:10:06;100348.31;;;15.26;44.96
13869;BME280;7004;48.206;16.402;2023-04-10T13:12:34;100345.00;;;16.41;45.26
13869;BME280;7004;48.206;16.402;2023-04-10T13:15:01;100341.94;;;16.23;43.97
13869;BME280;7004;48.206;16.402;2023-04-10T13:17:28;100341.78;;;16.02;45.65
13869;BME280;7004;48.206;16.402;2023-04-10T13:19:54;100339.69;;;15.22;45.16
13869;BME280;7004;48.206;16.402;2023-04-10T13:22:21;100335.03;;;15.61;44.34
13869;BME280;7004;48.206;16.402;2023-04-10T13:24:47;100322.06;;;16.38;44.70